createdAt,value
2022-09-02T00:01:25.179Z,3.50
2022-09-02T00:03:56.167Z,3.70
2022-09-02T00:06:23.470Z,4.28
2022-09-02T00:08:51.238Z,3.67
2022-09-02T00:11:23.266Z,4.13
2022-09-02T00:13:50.976Z,4.00
2022-09-02T00:16:18.420Z,3.90
2022-09-02T00:18:46.443Z,3.45
2022-09-02T00:21:14.918Z,3.72
2022-09-02T00:23:43.746Z,3.65
2022-09-02T00:26:12.196Z,3.67
2022-09-02T00:28:48.835Z,4.25
2022-09-02T00:31:17.648Z,3.65
2022-09-02T00:33:45.081Z,3.47
2022-09-02T00:36:13.102Z,3.97
2022-09-02T00:38:40.961Z,3.78
2022-09-02T00:41:10.343Z,4.22
2022-09-02T00:43:40.714Z,4.03
2022-09-02T00:46:08.633Z,3.92
2022-09-02T00:48:41.398Z,4.13
2022-09-02T00:51:09.958Z,3.97
2022-09-02T00:53:39.587Z,3.83
2022-09-02T00:56:13.799Z,3.42
2022-09-02T00:58:43.560Z,4.25
2022-09-02T01:01:14.780Z,4.45
2022-09-02T01:03:42.361Z,3.67
2022-09-02T01:06:16.479Z,3.58
2022-09-02T01:08:49.632Z,3.65
2022-09-02T01:11:20.629Z,3.72
2022-09-02T01:17:25.667Z,3.65
2022-09-02T01:20:01.896Z,3.40
2022-09-02T01:22:32.695Z,4.03
2022-09-02T01:25:09.204Z,3.70
2022-09-02T01:27:36.918Z,3.92
2022-09-02T01:30:06.844Z,4.13
2022-09-02T01:32:35.141Z,3.60
2022-09-02T01:35:02.259Z,3.88
2022-09-02T01:37:32.295Z,3.53
2022-09-02T01:40:00.387Z,3.63
2022-09-02T01:42:27.734Z,3.50
2022-09-02T01:44:55.003Z,3.80
2022-09-02T01:47:27.182Z,3.83
2022-09-02T01:49:55.254Z,4.40
2022-09-02T01:52:24.275Z,4.10
2022-09-02T01:54:51.774Z,3.67
2022-09-02T01:57:19.348Z,3.80
2022-09-02T01:59:46.712Z,3.55
2022-09-02T02:02:20.313Z,3.78
2022-09-02T02:04:49.090Z,3.63
2022-09-02T02:07:19.051Z,4.00
2022-09-02T02:09:46.736Z,4.20
2022-09-02T02:12:16.256Z,4.10
2022-09-02T02:14:43.830Z,3.63
2022-09-02T02:17:11.119Z,4.03
2022-09-02T02:19:40.590Z,3.70
2022-09-02T02:22:07.792Z,4.32
2022-09-02T02:24:34.840Z,3.95
2022-09-02T02:27:02.400Z,4.10
2022-09-02T02:29:30.262Z,3.90
2022-09-02T02:31:57.995Z,3.55
2022-09-02T02:34:25.689Z,3.58
2022-09-02T02:36:52.865Z,4.57
2022-09-02T02:39:20.868Z,3.88
2022-09-02T02:41:48.281Z,4.25
2022-09-02T02:44:16.826Z,4.38
2022-09-02T02:46:44.180Z,3.88
2022-09-02T02:49:12.164Z,3.85
2022-09-02T02:51:39.660Z,4.15
2022-09-02T02:54:06.956Z,3.78
2022-09-02T02:56:34.399Z,3.70
2022-09-02T02:59:03.526Z,3.92
2022-09-02T03:01:32.349Z,4.00
2022-09-02T03:04:00.142Z,4.55
2022-09-02T03:06:29.885Z,4.75
2022-09-02T03:08:57.751Z,3.97
2022-09-02T03:11:28.523Z,3.92
2022-09-02T03:13:57.062Z,4.00
2022-09-02T03:16:24.538Z,4.30
2022-09-02T03:18:53.504Z,4.80
2022-09-02T03:21:20.854Z,4.47
2022-09-02T03:23:48.754Z,4.55
2022-09-02T03:26:21.928Z,4.13
2022-09-02T03:28:50.399Z,4.28
2022-09-02T03:31:20.778Z,4.70
2022-09-02T03:33:48.139Z,4.68
2022-09-02T03:36:25.736Z,4.60
2022-09-02T03:38:53.643Z,4.57
2022-09-02T03:41:21.045Z,4.72
2022-09-02T03:43:48.857Z,4.22
2022-09-02T03:46:16.884Z,4.72
2022-09-02T03:48:45.906Z,5.10
2022-09-02T03:51:14.059Z,4.80
2022-09-02T03:53:42.258Z,4.72
2022-09-02T03:56:15.562Z,5.03
2022-09-02T03:58:44.732Z,4.50
2022-09-02T04:01:18.850Z,4.60
2022-09-02T04:03:46.727Z,5.18
2022-09-02T04:06:16.430Z,4.93
2022-09-02T04:08:45.185Z,5.47
2022-09-02T04:11:17.748Z,4.68
2022-09-02T04:13:48.587Z,4.63
2022-09-02T04:16:29.018Z,4.70
2022-09-02T04:19:02.289Z,5.22
2022-09-02T04:21:36.182Z,4.35
2022-09-02T04:24:06.092Z,5.57
2022-09-02T04:26:33.926Z,4.47
2022-09-02T04:29:02.119Z,4.90
2022-09-02T04:31:32.641Z,4.70
2022-09-02T04:34:00.755Z,3.90
2022-09-02T04:36:29.092Z,5.00
2022-09-02T04:39:01.613Z,4.78
2022-09-02T04:41:33.059Z,5.05
2022-09-02T04:44:05.135Z,4.95
2022-09-02T04:46:37.017Z,4.43
2022-09-02T04:49:09.234Z,4.45
2022-09-02T04:51:38.527Z,5.10
2022-09-02T04:54:08.159Z,4.63
2022-09-02T04:56:38.506Z,4.60
2022-09-02T04:59:07.985Z,4.45
2022-09-02T05:01:37.904Z,4.85
2022-09-02T05:04:11.630Z,4.55
2022-09-02T05:06:44.688Z,4.90
2022-09-02T05:09:16.991Z,4.93
2022-09-02T05:11:48.808Z,4.72
2022-09-02T05:14:17.631Z,6.13
2022-09-02T05:16:46.154Z,4.97
2022-09-02T05:19:16.677Z,5.22
2022-09-02T05:21:49.197Z,5.18
2022-09-02T05:24:26.755Z,4.22
2022-09-02T05:26:56.506Z,4.68
2022-09-02T05:29:26.188Z,4.57
2022-09-02T05:31:55.386Z,4.90
2022-09-02T05:34:24.111Z,4.75
2022-09-02T05:36:53.935Z,4.43
2022-09-02T05:39:21.382Z,4.43
2022-09-02T05:41:49.553Z,4.60
2022-09-02T05:44:17.850Z,4.45
2022-09-02T05:46:48.922Z,4.78
2022-09-02T05:49:18.180Z,4.60
2022-09-02T05:52:12.494Z,4.75
2022-09-02T05:54:43.753Z,4.65
2022-09-02T05:57:16.762Z,5.38
2022-09-02T06:00:07.937Z,4.65
2022-09-02T06:02:44.175Z,4.28
2022-09-02T06:05:38.347Z,3.78
2022-09-02T06:08:20.763Z,4.15
2022-09-02T06:10:48.005Z,3.60
2022-09-02T06:13:22.445Z,4.25
2022-09-02T06:15:51.655Z,3.50
2022-09-02T06:18:20.475Z,4.10
2022-09-02T06:20:51.832Z,4.28
2022-09-02T06:23:19.572Z,3.85
2022-09-02T06:25:49.088Z,4.15
2022-09-02T06:28:17.031Z,4.10
2022-09-02T06:30:48.731Z,3.72
2022-09-02T06:33:19.671Z,3.50
2022-09-02T06:35:48.446Z,3.38
2022-09-02T06:38:19.982Z,4.25
2022-09-02T06:40:51.511Z,4.13
2022-09-02T06:43:24.458Z,3.97
2022-09-02T06:46:15.844Z,3.22
2022-09-02T06:48:44.526Z,3.50
2022-09-02T06:51:43.376Z,3.85
2022-09-02T06:54:14.203Z,3.00
2022-09-02T06:56:47.257Z,3.45
2022-09-02T06:59:20.760Z,2.90
2022-09-02T07:01:52.153Z,3.30
2022-09-02T07:04:40.665Z,2.58
2022-09-02T07:07:12.001Z,4.05
2022-09-02T07:09:59.650Z,3.88
2022-09-02T07:12:28.081Z,3.35
2022-09-02T07:15:07.650Z,3.58
2022-09-02T07:17:40.437Z,3.42
2022-09-02T07:20:12.798Z,3.42
2022-09-02T07:22:47.834Z,2.97
2022-09-02T07:25:18.341Z,3.20
2022-09-02T07:27:51.609Z,2.70
2022-09-02T07:30:19.767Z,3.30
2022-09-02T07:32:52.517Z,3.40
2022-09-02T07:35:22.919Z,3.47
2022-09-02T07:37:51.233Z,3.58
2022-09-02T07:40:21.323Z,2.90
2022-09-02T07:42:48.832Z,2.97
2022-09-02T07:45:18.375Z,3.53
2022-09-02T07:47:46.508Z,4.63
2022-09-02T07:50:20.085Z,3.65
2022-09-02T07:52:58.208Z,3.55
2022-09-02T07:55:31.247Z,3.25
2022-09-02T07:58:00.103Z,2.97
2022-09-02T08:00:28.000Z,2.85
2022-09-02T08:03:01.905Z,3.70
2022-09-02T08:05:35.630Z,3.35
2022-09-02T08:08:04.562Z,3.10
2022-09-02T08:10:32.655Z,3.50
2022-09-02T08:13:00.946Z,3.47
2022-09-02T08:15:30.269Z,2.83
2022-09-02T08:17:58.413Z,3.03
2022-09-02T08:20:26.497Z,3.80
2022-09-02T08:23:05.057Z,2.35
2022-09-02T08:25:39.564Z,2.80
2022-09-02T08:28:08.070Z,2.75
2022-09-02T08:30:35.621Z,3.08
2022-09-02T08:33:03.041Z,3.10
2022-09-02T08:35:30.435Z,2.75
2022-09-02T08:38:01.519Z,2.85
2022-09-02T08:40:38.355Z,3.10
2022-09-02T08:43:38.513Z,2.42
2022-09-02T08:46:12.303Z,2.80
2022-09-02T08:49:09.128Z,3.20
2022-09-02T08:51:48.630Z,3.15
2022-09-02T08:54:29.758Z,3.13
2022-09-02T08:56:58.212Z,3.17
2022-09-02T08:59:28.349Z,2.92
2022-09-02T09:02:36.974Z,2.72
2022-09-02T09:05:15.809Z,2.78
2022-09-02T09:07:55.139Z,3.60
2022-09-02T09:10:40.896Z,3.08
2022-09-02T09:13:42.150Z,3.00
2022-09-02T09:16:33.590Z,3.35
2022-09-02T09:19:09.411Z,3.95
2022-09-02T09:21:37.327Z,3.45
2022-09-02T09:24:25.689Z,3.40
2022-09-02T09:26:55.064Z,3.65
2022-09-02T09:29:26.533Z,4.07
2022-09-02T09:31:59.054Z,3.13
2022-09-02T09:34:52.488Z,2.92
2022-09-02T09:37:36.136Z,3.20
2022-09-02T09:40:20.703Z,3.13
2022-09-02T09:42:55.699Z,3.85
2022-09-02T09:45:28.307Z,2.67
2022-09-02T09:48:07.704Z,2.88
2022-09-02T09:50:35.654Z,2.65
2022-09-02T09:53:21.050Z,3.08
2022-09-02T09:55:53.687Z,3.15
2022-09-02T09:58:44.110Z,2.70
2022-09-02T10:01:20.225Z,3.70
2022-09-02T10:03:58.176Z,2.80
2022-09-02T10:06:33.075Z,2.85
2022-09-02T10:09:09.265Z,3.85
2022-09-02T10:11:38.096Z,2.78
2022-09-02T10:14:08.884Z,3.47
2022-09-02T10:17:13.771Z,3.22
2022-09-02T10:20:06.054Z,3.00
2022-09-02T10:23:12.889Z,2.83
2022-09-02T10:26:05.593Z,2.65
2022-09-02T10:28:55.321Z,3.22
2022-09-02T10:32:04.084Z,2.67
2022-09-02T10:34:51.069Z,2.60
2022-09-02T10:37:26.349Z,2.97
2022-09-02T10:40:06.452Z,2.92
2022-09-02T10:43:07.913Z,2.67
2022-09-02T10:45:50.204Z,3.28
2022-09-02T10:49:04.824Z,2.70
2022-09-02T10:51:37.074Z,2.80
2022-09-02T10:54:42.067Z,2.75
2022-09-02T10:57:22.128Z,2.88
2022-09-02T11:00:10.550Z,2.60
2022-09-02T11:02:48.354Z,2.70
2022-09-02T11:05:25.786Z,3.08
2022-09-02T11:08:00.212Z,3.17
2022-09-02T11:10:37.043Z,3.35
2022-09-02T11:13:12.260Z,3.05
2022-09-02T11:15:50.161Z,3.08
2022-09-02T11:18:35.567Z,2.55
2022-09-02T11:21:17.471Z,2.80
2022-09-02T11:24:02.691Z,3.03
2022-09-02T11:26:38.642Z,3.00
2022-09-02T11:29:28.675Z,2.75
2022-09-02T11:32:15.838Z,2.50
2022-09-02T11:34:48.797Z,2.80
2022-09-02T11:37:43.173Z,2.53
2022-09-02T11:40:42.638Z,3.20
2022-09-02T11:43:17.619Z,3.30
2022-09-02T11:46:01.551Z,2.80
2022-09-02T11:48:51.416Z,3.10
2022-09-02T11:51:58.866Z,2.58
2022-09-02T11:54:35.995Z,3.50
2022-09-02T11:57:05.888Z,2.80
2022-09-02T11:59:51.477Z,2.88
2022-09-02T12:02:34.231Z,3.30
2022-09-02T12:05:30.245Z,3.17
2022-09-02T12:08:00.744Z,3.10
2022-09-02T12:10:47.815Z,3.23
2022-09-02T12:16:16.778Z,3.08
2022-09-02T12:18:54.368Z,3.33
2022-09-02T12:21:24.395Z,3.60
2022-09-02T12:23:52.700Z,3.45
2022-09-02T12:26:26.248Z,3.95
2022-09-02T12:29:10.127Z,3.25
2022-09-02T12:31:43.545Z,3.05
2022-09-02T12:34:26.041Z,3.10
2022-09-02T12:37:03.478Z,2.70
2022-09-02T12:39:35.551Z,2.80
2022-09-02T12:42:11.251Z,3.17
2022-09-02T12:44:44.706Z,2.55
2022-09-02T12:47:26.686Z,2.92
2022-09-02T12:50:07.286Z,2.85
2022-09-02T12:52:38.836Z,2.00
2022-09-02T12:55:21.321Z,2.00
2022-09-02T12:57:52.269Z,1.63
2022-09-02T13:00:51.574Z,1.13
2022-09-02T13:03:35.786Z,1.20
2022-09-02T13:06:31.444Z,1.08
2022-09-02T13:09:12.546Z,1.30
2022-09-02T13:12:10.776Z,1.27
2022-09-02T13:15:23.158Z,1.50
2022-09-02T13:18:11.022Z,1.40
2022-09-02T13:20:38.233Z,1.30
2022-09-02T13:23:31.619Z,1.40
2022-09-02T13:26:49.418Z,1.70
2022-09-02T13:29:55.310Z,1.65
2022-09-02T13:32:29.413Z,1.98
2022-09-02T13:35:01.263Z,1.88
2022-09-02T13:37:37.095Z,2.72
2022-09-02T13:40:23.813Z,2.47
2022-09-02T13:43:01.638Z,1.75
2022-09-02T13:45:32.511Z,2.28
2022-09-02T13:48:03.108Z,1.83
2022-09-02T13:50:32.295Z,2.07
2022-09-02T13:55:53.448Z,1.83
2022-09-02T13:58:46.902Z,2.25
2022-09-02T14:01:35.319Z,2.38
2022-09-02T14:04:10.243Z,3.20
2022-09-02T14:06:40.289Z,3.00
2022-09-02T14:09:18.440Z,3.40
2022-09-02T14:11:46.652Z,3.83
2022-09-02T14:14:15.539Z,4.78
2022-09-02T14:16:42.793Z,4.40
2022-09-02T14:19:17.294Z,3.63
2022-09-02T14:21:51.832Z,3.78
2022-09-02T14:24:23.135Z,3.83
2022-09-02T14:29:21.399Z,4.15
2022-09-02T14:32:10.846Z,3.38
2022-09-02T14:34:40.738Z,4.32
2022-09-02T14:37:31.144Z,4.00
2022-09-02T14:40:11.680Z,3.55
2022-09-02T14:45:24.635Z,3.45
2022-09-02T14:47:52.296Z,3.50
2022-09-02T14:50:22.488Z,2.20
2022-09-02T14:52:53.942Z,1.65
2022-09-02T14:55:45.901Z,1.30
2022-09-02T14:58:13.816Z,1.52
2022-09-02T15:00:41.001Z,1.23
2022-09-02T15:03:08.292Z,1.63
2022-09-02T15:05:36.046Z,1.60
2022-09-02T15:08:03.839Z,2.30
2022-09-02T15:10:31.529Z,2.53
2022-09-02T15:12:59.531Z,2.40
2022-09-02T15:15:27.895Z,2.00
2022-09-02T15:17:56.601Z,2.13
2022-09-02T15:20:24.725Z,2.83
2022-09-02T15:22:53.267Z,1.80
2022-09-02T15:25:21.134Z,1.48
2022-09-02T15:27:48.460Z,1.77
2022-09-02T15:30:15.703Z,1.95
2022-09-02T15:32:43.214Z,1.83
2022-09-02T15:35:11.845Z,1.77
2022-09-02T15:37:41.158Z,1.92
2022-09-02T15:40:10.444Z,1.73
2022-09-02T15:42:38.814Z,1.65
2022-09-02T15:45:09.065Z,1.20
2022-09-02T15:47:37.341Z,1.33
2022-09-02T15:50:06.316Z,1.17
2022-09-02T15:52:35.076Z,2.03
2022-09-02T15:55:03.217Z,1.40
2022-09-02T15:57:31.070Z,1.10
2022-09-02T15:59:58.748Z,1.20
2022-09-02T16:02:26.008Z,1.55
2022-09-02T16:04:53.239Z,1.48
2022-09-02T16:07:21.099Z,1.98
2022-09-02T16:09:48.263Z,1.27
2022-09-02T16:12:15.588Z,1.23
2022-09-02T16:14:42.983Z,1.30
2022-09-02T16:17:10.518Z,1.10
2022-09-02T16:19:38.191Z,1.30
2022-09-02T16:22:05.730Z,1.52
2022-09-02T16:24:33.129Z,1.48
2022-09-02T16:27:00.220Z,1.60
2022-09-02T16:29:28.248Z,1.98
2022-09-02T16:32:27.229Z,1.58
2022-09-02T16:34:43.328Z,1.90
2022-09-02T16:37:10.586Z,1.50
2022-09-02T16:39:37.877Z,1.52
2022-09-02T16:42:05.451Z,2.47
2022-09-02T16:44:34.276Z,2.63
2022-09-02T16:47:01.565Z,3.17
2022-09-02T16:49:28.829Z,2.20
2022-09-02T16:51:58.064Z,2.53
2022-09-02T16:54:31.428Z,2.67
2022-09-02T16:57:01.421Z,2.80
2022-09-02T16:59:28.824Z,2.08
2022-09-02T17:01:55.952Z,1.73
2022-09-02T17:04:23.476Z,2.35
2022-09-02T17:06:50.529Z,2.17
2022-09-02T17:09:17.777Z,2.22
2022-09-02T17:11:45.610Z,2.60
2022-09-02T17:14:16.834Z,3.20
2022-09-02T17:16:46.959Z,3.38
2022-09-02T17:19:21.190Z,3.10
2022-09-02T17:21:51.898Z,3.95
2022-09-02T17:24:21.453Z,3.30
2022-09-02T17:26:50.766Z,3.80
2022-09-02T17:32:07.765Z,4.47
2022-09-02T17:34:34.932Z,5.47
2022-09-02T17:37:02.354Z,4.38
2022-09-02T17:39:30.634Z,4.25
2022-09-02T17:41:57.907Z,4.82
2022-09-02T17:44:35.012Z,4.80
2022-09-02T17:47:07.038Z,4.25
2022-09-02T17:49:36.789Z,4.90
2022-09-02T17:52:08.384Z,3.83
2022-09-02T17:54:37.657Z,4.40
2022-09-02T17:57:20.981Z,3.90
2022-09-02T17:59:51.359Z,3.65
2022-09-02T18:02:35.813Z,4.95
2022-09-02T18:05:22.424Z,3.97
2022-09-02T18:08:28.405Z,4.18
2022-09-02T18:11:03.058Z,3.70
2022-09-02T18:13:35.800Z,4.13
2022-09-02T18:16:36.902Z,4.10
2022-09-02T18:19:35.784Z,4.10
2022-09-02T18:22:44.366Z,4.32
2022-09-02T18:25:12.133Z,4.13
2022-09-02T18:28:04.681Z,4.10
2022-09-02T18:30:46.569Z,3.97
2022-09-02T18:33:54.116Z,3.58
2022-09-02T18:36:30.791Z,3.90
2022-09-02T18:39:29.862Z,3.75
2022-09-02T18:42:42.510Z,3.70
2022-09-02T18:45:32.019Z,3.53
2022-09-02T18:48:36.945Z,3.50
2022-09-02T18:51:16.212Z,3.90
2022-09-02T18:53:48.597Z,3.40
2022-09-02T18:56:18.660Z,4.03
2022-09-02T18:58:49.373Z,3.58
2022-09-02T19:01:30.218Z,3.37
2022-09-02T19:04:01.185Z,4.78
2022-09-02T19:06:41.351Z,4.60
2022-09-02T19:09:14.893Z,5.13
2022-09-02T19:11:42.139Z,4.50
2022-09-02T19:14:09.313Z,3.60
2022-09-02T19:16:38.555Z,3.60
2022-09-02T19:19:10.549Z,3.50
2022-09-02T19:21:48.574Z,3.53
2022-09-02T19:24:23.979Z,4.00
2022-09-02T19:26:57.222Z,2.83
2022-09-02T19:29:25.513Z,3.00
2022-09-02T19:31:54.777Z,2.97
2022-09-02T19:34:35.791Z,3.80
2022-09-02T19:37:05.050Z,3.30
2022-09-02T19:39:33.729Z,3.03
2022-09-02T19:42:01.569Z,3.60
2022-09-02T19:44:29.472Z,3.55
2022-09-02T19:47:49.731Z,3.20
2022-09-02T19:49:50.098Z,3.40
2022-09-02T19:52:22.582Z,2.60
2022-09-02T19:54:49.907Z,2.80
2022-09-02T19:57:17.217Z,3.05
2022-09-02T19:59:45.333Z,2.90
2022-09-02T20:02:15.479Z,3.22
2022-09-02T20:07:11.524Z,3.05
2022-09-02T20:09:38.774Z,3.15
2022-09-02T20:12:05.927Z,3.28
2022-09-02T20:14:35.114Z,2.75
2022-09-02T20:17:05.682Z,2.80
2022-09-02T20:19:33.018Z,2.85
2022-09-02T20:22:00.763Z,3.10
2022-09-02T20:24:34.235Z,2.55
2022-09-02T20:27:13.237Z,3.20
2022-09-02T20:30:11.151Z,3.08
2022-09-02T20:32:49.283Z,2.90
2022-09-02T20:35:38.235Z,2.30
2022-09-02T20:38:20.976Z,2.60
2022-09-02T20:40:59.196Z,2.97
2022-09-02T20:43:54.729Z,2.70
2022-09-02T20:46:57.927Z,2.72
2022-09-02T20:49:28.079Z,2.67
2022-09-02T20:52:17.379Z,3.00
2022-09-02T20:54:53.018Z,2.90
2022-09-02T20:57:42.639Z,3.25
2022-09-02T21:00:22.733Z,3.08
2022-09-02T21:03:11.505Z,3.30
2022-09-02T21:05:44.101Z,3.40
2022-09-02T21:08:30.343Z,3.17
2022-09-02T21:11:00.747Z,2.47
2022-09-02T21:13:38.512Z,2.70
2022-09-02T21:16:13.044Z,3.15
2022-09-02T21:21:30.874Z,2.72
2022-09-02T21:24:08.467Z,2.67
2022-09-02T21:27:03.716Z,2.38
2022-09-02T21:29:51.005Z,3.13
2022-09-02T21:32:56.329Z,2.83
2022-09-02T21:35:28.315Z,3.45
2022-09-02T21:38:12.531Z,3.38
2022-09-02T21:41:13.587Z,3.10
2022-09-02T21:44:02.466Z,3.35
2022-09-02T21:46:44.891Z,3.30
2022-09-02T21:49:35.254Z,3.65
2022-09-02T21:52:29.934Z,3.88
2022-09-02T21:55:02.938Z,4.13
2022-09-02T21:57:36.524Z,5.05
2022-09-02T22:00:08.364Z,6.20
2022-09-02T22:03:16.387Z,6.68
2022-09-02T22:06:05.036Z,6.47
2022-09-02T22:08:50.756Z,5.30
2022-09-02T22:11:26.739Z,5.30
2022-09-02T22:13:58.995Z,6.28
2022-09-02T22:16:37.587Z,6.75
2022-09-02T22:19:10.094Z,7.28
2022-09-02T22:21:53.532Z,7.20
2022-09-02T22:24:28.582Z,7.40
2022-09-02T22:27:13.281Z,7.20
2022-09-02T22:29:59.877Z,7.18
2022-09-02T22:32:34.537Z,7.90
2022-09-02T22:35:16.938Z,8.43
2022-09-02T22:37:55.005Z,8.40
2022-09-02T22:40:28.036Z,7.25
2022-09-02T22:43:02.680Z,8.07
2022-09-02T22:45:55.523Z,7.65
2022-09-02T22:48:51.658Z,7.38
2022-09-02T22:52:03.318Z,7.15
2022-09-02T22:54:32.159Z,6.97
2022-09-02T22:57:47.614Z,6.93
2022-09-02T23:00:17.003Z,7.18
2022-09-02T23:03:05.683Z,7.85
2022-09-02T23:06:05.206Z,8.57
2022-09-02T23:08:37.148Z,7.65
2022-09-02T23:11:28.157Z,7.45
2022-09-02T23:14:11.229Z,7.85
2022-09-02T23:16:59.737Z,8.73
2022-09-02T23:19:34.971Z,5.78
2022-09-02T23:22:09.469Z,6.00
2022-09-02T23:24:47.239Z,5.78
2022-09-02T23:27:52.369Z,4.78
2022-09-02T23:30:19.658Z,3.55
2022-09-02T23:33:17.920Z,5.15
2022-09-02T23:36:11.813Z,3.17
2022-09-02T23:39:04.631Z,2.35
2022-09-02T23:41:31.858Z,5.00
2022-09-02T23:43:59.882Z,6.38
2022-09-02T23:46:42.481Z,1.42
2022-09-02T23:49:24.870Z,1.50
2022-09-02T23:52:10.349Z,1.58
2022-09-02T23:55:00.200Z,1.65
2022-09-02T23:57:46.182Z,1.30
